Time;durP1;ratioP1;P1;durP2;ratioP2;P2;SDS_P1;SDS_P2;PMS_P1;PMS_P2;Temp;Humidity;BMP_temperature;BMP_pressure;BME280_temperature;BME280_humidity;BME280_pressure;Samples;Min_cycle;Max_cycle;Signal;HPM_P1;HPM_P2
2022/02/14 00:00:25;;;;;;;38.23;16.60;;;;;;;;;;5065806;28;20213;-79
2022/02/14 00:02:52;;;;;;;34.33;15.47;;;;;;;;;;5065286;28;20203;-80
2022/02/14 00:05:20;;;;;;;37.17;15.53;;;;;;;;;;5066544;28;20209;-78
2022/02/14 00:07:47;;;;;;;41.60;16.43;;;;;;;;;;5066627;28;20208;-80
2022/02/14 00:10:14;;;;;;;37.77;15.60;;;;;;;;;;5069847;28;20448;-80
2022/02/14 00:12:42;;;;;;;34.60;15.50;;;;;;;;;;5069262;28;20595;-79
2022/02/14 00:15:12;;;;;;;35.83;15.57;;;;;;;;;;5068591;28;20696;-79
2022/02/14 00:17:39;;;;;;;36.43;15.83;;;;;;;;;;5066383;28;20212;-79
2022/02/14 00:20:07;;;;;;;38.67;16.03;;;;;;;;;;5065480;28;20227;-80
2022/02/14 00:22:34;;;;;;;42.87;16.37;;;;;;;;;;5067017;28;20309;-79
2022/02/14 00:25:01;;;;;;;36.53;15.87;;;;;;;;;;5067633;28;20194;-79
2022/02/14 00:27:29;;;;;;;37.40;14.20;;;;;;;;;;5068202;28;20270;-79
2022/02/14 00:29:56;;;;;;;33.10;15.47;;;;;;;;;;5065759;28;20245;-79
2022/02/14 00:32:24;;;;;;;30.57;14.47;;;;;;;;;;5068905;28;20302;-79
2022/02/14 00:34:52;;;;;;;31.53;14.77;;;;;;;;;;5067043;28;20225;-80
2022/02/14 00:37:19;;;;;;;37.17;15.30;;;;;;;;;;5067708;28;20202;-80
2022/02/14 00:39:47;;;;;;;35.83;14.67;;;;;;;;;;5066491;28;20238;-79
2022/02/14 00:42:14;;;;;;;28.87;14.20;;;;;;;;;;5065987;28;20715;-79
2022/02/14 00:44:41;;;;;;;32.27;14.33;;;;;;;;;;5068541;28;20201;-79
2022/02/14 00:47:09;;;;;;;26.77;13.63;;;;;;;;;;5069022;28;20203;-80
2022/02/14 00:49:37;;;;;;;28.30;13.90;;;;;;;;;;5066757;28;20281;-79
2022/02/14 00:52:05;;;;;;;36.77;14.30;;;;;;;;;;5065824;28;20234;-80
2022/02/14 00:54:32;;;;;;;31.20;14.03;;;;;;;;;;5068618;28;20209;-78
2022/02/14 00:57:00;;;;;;;35.37;14.07;;;;;;;;;;5066141;28;20308;-79
2022/02/14 00:59:27;;;;;;;29.37;14.13;;;;;;;;;;5069250;28;20210;-80
2022/02/14 01:01:54;;;;;;;25.87;12.23;;;;;;;;;;5071355;28;20218;-80
2022/02/14 01:04:22;;;;;;;30.10;13.23;;;;;;;;;;5074597;28;20657;-79
2022/02/14 01:06:50;;;;;;;33.47;14.00;;;;;;;;;;5070228;28;20194;-79
2022/02/14 01:09:17;;;;;;;28.80;12.83;;;;;;;;;;5069805;28;20209;-79
2022/02/14 01:11:45;;;;;;;28.97;13.33;;;;;;;;;;5069370;28;20293;-80
2022/02/14 01:14:12;;;;;;;29.67;13.57;;;;;;;;;;5071346;28;20539;-78
2022/02/14 01:16:39;;;;;;;30.27;14.20;;;;;;;;;;5069374;28;20237;-79
2022/02/14 01:19:06;;;;;;;27.17;13.07;;;;;;;;;;5070165;28;20531;-79
2022/02/14 01:21:33;;;;;;;30.47;14.03;;;;;;;;;;5069731;28;20615;-78
2022/02/14 01:24:02;;;;;;;37.40;14.53;;;;;;;;;;5070037;28;20314;-79
2022/02/14 01:26:29;;;;;;;29.33;12.97;;;;;;;;;;5071133;28;20480;-80
2022/02/14 01:28:56;;;;;;;28.00;12.47;;;;;;;;;;5073322;28;20959;-79
2022/02/14 01:31:24;;;;;;;27.97;13.33;;;;;;;;;;5069819;28;20245;-80
2022/02/14 01:33:51;;;;;;;27.33;12.70;;;;;;;;;;5068544;28;20935;-79
2022/02/14 01:36:18;;;;;;;29.37;12.87;;;;;;;;;;5070610;28;20596;-78
2022/02/14 01:38:45;;;;;;;30.23;12.00;;;;;;;;;;5069696;28;20989;-80
2022/02/14 01:41:14;;;;;;;25.53;11.60;;;;;;;;;;5071453;28;20476;-80
2022/02/14 01:43:43;;;;;;;28.80;12.67;;;;;;;;;;5069906;28;20559;-80
2022/02/14 01:46:10;;;;;;;31.37;13.23;;;;;;;;;;5069716;28;20475;-78
2022/02/14 01:48:37;;;;;;;30.03;12.87;;;;;;;;;;5070026;28;20453;-80
2022/02/14 01:51:04;;;;;;;38.67;12.90;;;;;;;;;;5070651;28;20476;-79
2022/02/14 01:53:32;;;;;;;29.63;12.57;;;;;;;;;;5067597;28;20955;-79
2022/02/14 01:55:59;;;;;;;33.30;13.63;;;;;;;;;;5071641;28;20576;-79
2022/02/14 01:58:27;;;;;;;25.20;10.40;;;;;;;;;;5070670;28;20539;-80
2022/02/14 02:00:55;;;;;;;29.17;12.40;;;;;;;;;;5069713;28;21002;-80
2022/02/14 02:03:24;;;;;;;26.07;12.20;;;;;;;;;;5066136;28;20441;-79
2022/02/14 02:05:52;;;;;;;30.57;12.80;;;;;;;;;;5066412;28;20480;-79
2022/02/14 02:08:19;;;;;;;27.50;13.00;;;;;;;;;;5069435;28;20544;-79
2022/02/14 02:10:46;;;;;;;27.57;11.97;;;;;;;;;;5067951;28;20496;-79
2022/02/14 02:13:16;;;;;;;25.00;11.57;;;;;;;;;;5069349;28;20986;-79
2022/02/14 02:15:44;;;;;;;30.97;12.60;;;;;;;;;;5069193;28;21072;-80
2022/02/14 02:18:12;;;;;;;25.73;12.13;;;;;;;;;;5071671;28;20452;-79
2022/02/14 02:20:39;;;;;;;29.67;11.87;;;;;;;;;;5070679;28;20544;-81
2022/02/14 02:23:06;;;;;;;32.27;12.53;;;;;;;;;;5078285;28;20463;-80
2022/02/14 02:25:35;;;;;;;30.00;11.77;;;;;;;;;;5074000;28;20903;-80
2022/02/14 02:28:03;;;;;;;31.80;12.40;;;;;;;;;;5069469;28;20825;-80
2022/02/14 02:30:30;;;;;;;28.10;12.37;;;;;;;;;;5068228;28;20646;-79
2022/02/14 02:32:57;;;;;;;27.43;12.20;;;;;;;;;;5068476;28;20445;-80
2022/02/14 02:35:24;;;;;;;28.17;12.77;;;;;;;;;;5069273;28;20522;-80
2022/02/14 02:37:51;;;;;;;23.30;11.13;;;;;;;;;;5068678;28;22434;-80
2022/02/14 02:40:18;;;;;;;26.10;10.80;;;;;;;;;;5065294;28;20889;-80
2022/02/14 02:42:47;;;;;;;25.73;11.40;;;;;;;;;;5070829;28;20456;-80
2022/02/14 02:45:14;;;;;;;35.30;12.03;;;;;;;;;;5067012;28;20726;-79
2022/02/14 02:47:41;;;;;;;25.43;11.77;;;;;;;;;;5070182;28;20469;-80
2022/02/14 02:50:10;;;;;;;23.87;10.83;;;;;;;;;;5072851;28;20547;-79
2022/02/14 02:52:37;;;;;;;23.53;11.00;;;;;;;;;;5068584;28;20467;-78
2022/02/14 02:55:04;;;;;;;30.37;11.67;;;;;;;;;;5066908;28;20878;-79
2022/02/14 02:57:32;;;;;;;22.63;10.60;;;;;;;;;;5069876;28;20520;-80
2022/02/14 03:00:00;;;;;;;25.90;10.43;;;;;;;;;;5069351;28;20441;-79
2022/02/14 03:02:27;;;;;;;31.17;11.43;;;;;;;;;;5072363;28;20475;-80
2022/02/14 03:04:55;;;;;;;27.27;10.67;;;;;;;;;;5073006;28;20471;-80
2022/02/14 03:07:22;;;;;;;22.90;10.10;;;;;;;;;;5073899;28;20475;-80
2022/02/14 03:09:49;;;;;;;30.23;11.00;;;;;;;;;;5074933;28;21196;-80
2022/02/14 03:12:16;;;;;;;24.90;11.33;;;;;;;;;;5065903;28;20471;-80
2022/02/14 03:14:43;;;;;;;27.83;11.13;;;;;;;;;;5071426;28;20441;-79
2022/02/14 03:17:12;;;;;;;24.40;11.17;;;;;;;;;;5068461;28;20480;-80
2022/02/14 03:19:40;;;;;;;23.73;11.00;;;;;;;;;;5071030;28;20553;-79
2022/02/14 03:22:07;;;;;;;28.27;11.20;;;;;;;;;;5069223;28;20473;-80
2022/02/14 03:24:34;;;;;;;27.63;11.50;;;;;;;;;;5071165;28;20463;-80
2022/02/14 03:27:02;;;;;;;27.40;11.97;;;;;;;;;;5069033;28;20457;-80
2022/02/14 03:29:29;;;;;;;24.03;11.50;;;;;;;;;;5069223;28;20839;-80
2022/02/14 03:31:56;;;;;;;27.07;11.53;;;;;;;;;;5065535;28;20472;-80
2022/02/14 03:34:24;;;;;;;28.10;11.47;;;;;;;;;;5068546;28;20456;-80
2022/02/14 03:36:51;;;;;;;25.30;11.20;;;;;;;;;;5067823;28;20489;-79
2022/02/14 03:39:19;;;;;;;27.40;11.53;;;;;;;;;;5067545;28;20447;-80
2022/02/14 03:41:46;;;;;;;26.33;10.87;;;;;;;;;;5066318;28;20472;-80
2022/02/14 03:44:13;;;;;;;29.53;11.40;;;;;;;;;;5070230;28;20506;-80
2022/02/14 03:46:41;;;;;;;22.83;10.27;;;;;;;;;;5068265;28;20890;-80
2022/02/14 03:49:08;;;;;;;22.77;11.30;;;;;;;;;;5067973;28;20445;-80
2022/02/14 03:51:37;;;;;;;26.57;10.73;;;;;;;;;;5065620;28;20838;-81
2022/02/14 03:54:05;;;;;;;23.77;10.53;;;;;;;;;;5070299;28;20445;-79
2022/02/14 03:56:32;;;;;;;30.10;11.13;;;;;;;;;;5067778;28;20858;-81
2022/02/14 03:58:59;;;;;;;26.03;11.20;;;;;;;;;;5068079;28;20939;-81
2022/02/14 04:01:26;;;;;;;27.73;11.10;;;;;;;;;;5068496;28;20468;-80
2022/02/14 04:03:53;;;;;;;32.27;13.23;;;;;;;;;;5067018;28;20578;-79
2022/02/14 04:06:20;;;;;;;24.53;10.93;;;;;;;;;;5067142;28;20448;-81
2022/02/14 04:08:49;;;;;;;30.90;11.17;;;;;;;;;;5069351;28;20967;-80
2022/02/14 04:11:16;;;;;;;25.63;11.57;;;;;;;;;;5069167;28;20817;-78
2022/02/14 04:13:43;;;;;;;29.90;12.10;;;;;;;;;;5068810;28;20966;-80
2022/02/14 04:16:10;;;;;;;32.70;10.40;;;;;;;;;;5064857;28;20471;-81
2022/02/14 04:18:38;;;;;;;32.07;11.10;;;;;;;;;;5070900;28;20889;-80
2022/02/14 04:21:05;;;;;;;28.27;11.20;;;;;;;;;;5066125;28;20467;-80
2022/02/14 04:23:32;;;;;;;22.37;9.97;;;;;;;;;;5068632;28;20848;-80
2022/02/14 04:26:00;;;;;;;30.10;11.07;;;;;;;;;;5068933;28;20519;-80
2022/02/14 04:28:28;;;;;;;24.83;10.57;;;;;;;;;;5067225;28;20575;-79
2022/02/14 04:30:55;;;;;;;26.40;9.43;;;;;;;;;;5067829;28;20560;-80
2022/02/14 04:33:22;;;;;;;24.83;10.53;;;;;;;;;;5066672;28;20449;-79
2022/02/14 04:35:49;;;;;;;26.53;10.67;;;;;;;;;;5071312;28;20568;-80
2022/02/14 04:38:16;;;;;;;25.23;10.57;;;;;;;;;;5072401;28;20444;-79
2022/02/14 04:40:43;;;;;;;23.33;10.13;;;;;;;;;;5070791;28;20460;-80
2022/02/14 04:43:12;;;;;;;29.57;11.40;;;;;;;;;;5074325;28;20471;-79
2022/02/14 04:45:39;;;;;;;21.70;10.10;;;;;;;;;;5070833;28;20547;-81
2022/02/14 04:48:06;;;;;;;26.43;10.20;;;;;;;;;;5073990;28;20451;-79
2022/02/14 04:50:33;;;;;;;17.53;9.00;;;;;;;;;;5071339;28;20547;-81
2022/02/14 04:53:01;;;;;;;20.70;9.13;;;;;;;;;;5072592;28;20448;-80
2022/02/14 04:55:28;;;;;;;31.70;14.73;;;;;;;;;;5070591;28;20460;-80
2022/02/14 04:57:55;;;;;;;21.43;8.97;;;;;;;;;;5070984;28;20515;-80
2022/02/14 05:00:24;;;;;;;26.33;9.63;;;;;;;;;;5070991;28;20449;-80
2022/02/14 05:02:51;;;;;;;16.60;7.90;;;;;;;;;;5072151;28;20562;-80
2022/02/14 05:05:18;;;;;;;21.37;9.53;;;;;;;;;;5071444;28;20962;-79
2022/02/14 05:07:48;;;;;;;24.47;10.73;;;;;;;;;;5071210;28;20942;-79
2022/02/14 05:10:15;;;;;;;25.40;9.03;;;;;;;;;;5070936;28;20198;-79
2022/02/14 05:12:42;;;;;;;22.57;8.63;;;;;;;;;;5070141;28;20222;-81
2022/02/14 05:15:10;;;;;;;24.50;9.07;;;;;;;;;;5069801;28;20449;-80
2022/02/14 05:17:38;;;;;;;21.27;8.20;;;;;;;;;;5070022;28;20222;-80
2022/02/14 05:20:06;;;;;;;22.07;9.27;;;;;;;;;;5071193;28;20464;-79
2022/02/14 05:22:34;;;;;;;32.33;11.73;;;;;;;;;;5071733;28;20472;-80
2022/02/14 05:25:01;;;;;;;22.93;9.40;;;;;;;;;;5072216;28;20456;-79
2022/02/14 05:27:28;;;;;;;24.20;9.67;;;;;;;;;;5071490;28;20448;-80
2022/02/14 05:29:55;;;;;;;27.40;9.80;;;;;;;;;;5069633;28;20449;-79
2022/02/14 05:32:22;;;;;;;31.50;10.10;;;;;;;;;;5069628;28;20949;-80
2022/02/14 05:34:51;;;;;;;24.47;9.13;;;;;;;;;;5071859;28;20218;-80
2022/02/14 05:37:18;;;;;;;24.93;8.70;;;;;;;;;;5071917;28;20516;-80
2022/02/14 05:39:46;;;;;;;21.23;9.23;;;;;;;;;;5071766;28;20205;-80
2022/02/14 05:42:13;;;;;;;21.03;8.13;;;;;;;;;;5069840;28;20257;-80
2022/02/14 05:44:41;;;;;;;24.17;8.70;;;;;;;;;;5069179;28;20471;-79
2022/02/14 05:47:08;;;;;;;17.57;7.97;;;;;;;;;;5066977;28;20232;-80
2022/02/14 05:49:35;;;;;;;20.70;9.40;;;;;;;;;;5069969;28;20688;-80
2022/02/14 05:52:04;;;;;;;16.13;7.80;;;;;;;;;;5067571;28;20241;-81
2022/02/14 05:54:32;;;;;;;14.83;7.87;;;;;;;;;;5069640;28;20987;-80
2022/02/14 05:56:59;;;;;;;20.90;8.40;;;;;;;;;;5072058;28;20218;-78
2022/02/14 05:59:26;;;;;;;19.77;7.90;;;;;;;;;;5070852;28;20202;-79
2022/02/14 06:01:54;;;;;;;16.63;6.77;;;;;;;;;;5072346;28;20525;-79
2022/02/14 06:04:21;;;;;;;17.47;7.80;;;;;;;;;;5062095;28;20209;-79
2022/02/14 06:06:48;;;;;;;15.03;7.30;;;;;;;;;;5060978;28;20210;-80
2022/02/14 06:09:17;;;;;;;15.73;6.80;;;;;;;;;;5067211;28;20210;-79
2022/02/14 06:11:44;;;;;;;18.47;7.43;;;;;;;;;;5060822;28;20219;-79
2022/02/14 06:14:11;;;;;;;16.70;7.33;;;;;;;;;;5073916;28;20212;-80
2022/02/14 06:16:38;;;;;;;19.30;7.93;;;;;;;;;;5067252;28;20232;-81
2022/02/14 06:19:06;;;;;;;17.90;7.17;;;;;;;;;;5069949;28;20577;-79
2022/02/14 06:21:33;;;;;;;14.60;7.00;;;;;;;;;;5070515;28;20726;-79
2022/02/14 06:24:00;;;;;;;18.80;7.70;;;;;;;;;;5070702;28;20585;-80
2022/02/14 06:26:32;;;;;;;17.73;7.40;;;;;;;;;;5074520;28;20637;-80
2022/02/14 06:28:59;;;;;;;19.13;7.33;;;;;;;;;;5067663;28;20203;-78
2022/02/14 06:31:27;;;;;;;15.40;7.43;;;;;;;;;;5068087;28;20309;-79
2022/02/14 06:33:54;;;;;;;15.93;7.40;;;;;;;;;;5068607;28;20236;-80
2022/02/14 06:36:23;;;;;;;18.47;7.47;;;;;;;;;;5068417;28;20289;-81
2022/02/14 06:38:50;;;;;;;14.37;7.13;;;;;;;;;;5069262;28;20272;-78
2022/02/14 06:41:18;;;;;;;15.70;6.73;;;;;;;;;;5069342;28;20221;-79
2022/02/14 06:43:46;;;;;;;18.30;7.83;;;;;;;;;;5070857;28;20247;-81
2022/02/14 06:46:13;;;;;;;19.00;7.50;;;;;;;;;;5069073;28;20202;-80
2022/02/14 06:48:41;;;;;;;17.53;7.33;;;;;;;;;;5069908;28;20297;-80
2022/02/14 06:51:09;;;;;;;12.03;6.47;;;;;;;;;;5069786;28;20321;-80
2022/02/14 06:53:36;;;;;;;14.13;6.70;;;;;;;;;;5072267;28;20201;-80
2022/02/14 06:56:05;;;;;;;14.10;7.00;;;;;;;;;;5067759;28;20198;-80
2022/02/14 06:58:32;;;;;;;13.90;6.40;;;;;;;;;;5070115;28;20222;-80
2022/02/14 07:01:01;;;;;;;12.13;6.67;;;;;;;;;;5071104;28;20310;-81
2022/02/14 07:03:28;;;;;;;14.67;7.20;;;;;;;;;;5067743;28;20202;-78
2022/02/14 07:05:55;;;;;;;17.80;7.67;;;;;;;;;;5069562;28;20230;-79
2022/02/14 07:08:23;;;;;;;21.80;8.47;;;;;;;;;;5070601;28;20285;-79
2022/02/14 07:10:50;;;;;;;15.13;6.80;;;;;;;;;;5067773;28;20229;-80
2022/02/14 07:13:17;;;;;;;14.60;6.83;;;;;;;;;;5068602;28;20202;-79
2022/02/14 07:15:45;;;;;;;17.60;7.23;;;;;;;;;;5069705;28;20210;-79
2022/02/14 07:18:14;;;;;;;18.27;7.80;;;;;;;;;;5071361;28;20226;-76
2022/02/14 07:20:42;;;;;;;13.90;7.50;;;;;;;;;;5070449;28;20216;-78
2022/02/14 07:23:09;;;;;;;16.27;7.40;;;;;;;;;;5067476;28;20206;-78
2022/02/14 07:25:37;;;;;;;17.13;7.00;;;;;;;;;;5072416;28;20225;-78
2022/02/14 07:28:04;;;;;;;15.53;6.00;;;;;;;;;;5071690;28;20206;-78
2022/02/14 07:30:32;;;;;;;14.73;6.57;;;;;;;;;;5068936;28;20679;-77
2022/02/14 07:32:59;;;;;;;12.07;6.10;;;;;;;;;;5070126;28;20226;-80
2022/02/14 07:35:27;;;;;;;12.50;5.67;;;;;;;;;;5067495;28;20202;-77
2022/02/14 07:37:55;;;;;;;12.03;5.57;;;;;;;;;;5069003;28;20249;-78
2022/02/14 07:40:22;;;;;;;20.37;6.00;;;;;;;;;;5068639;28;20225;-79
2022/02/14 07:42:49;;;;;;;13.97;4.73;;;;;;;;;;5068962;28;20194;-78
2022/02/14 07:45:16;;;;;;;10.43;5.47;;;;;;;;;;5069769;28;20207;-78
2022/02/14 07:47:43;;;;;;;12.63;5.80;;;;;;;;;;5067278;28;20308;-78
2022/02/14 07:50:12;;;;;;;16.73;6.17;;;;;;;;;;5070308;28;20221;-78
2022/02/14 07:52:41;;;;;;;15.23;5.30;;;;;;;;;;5069839;28;20723;-76
2022/02/14 07:55:09;;;;;;;18.73;5.43;;;;;;;;;;5068620;28;20206;-76
2022/02/14 07:57:36;;;;;;;11.10;5.07;;;;;;;;;;5070235;28;20230;-77
2022/02/14 08:00:04;;;;;;;13.87;3.63;;;;;;;;;;5072269;28;20285;-77
2022/02/14 08:02:31;;;;;;;10.47;3.10;;;;;;;;;;5071636;28;20649;-77
2022/02/14 08:04:59;;;;;;;8.83;4.40;;;;;;;;;;5069073;28;20541;-77
2022/02/14 08:07:26;;;;;;;7.47;4.20;;;;;;;;;;5065371;28;20226;-78
2022/02/14 08:09:54;;;;;;;12.00;4.00;;;;;;;;;;5074043;28;20659;-78
2022/02/14 08:12:22;;;;;;;12.37;4.00;;;;;;;;;;5072938;28;20279;-78
2022/02/14 08:14:51;;;;;;;9.80;4.20;;;;;;;;;;5072244;28;20252;-78
2022/02/14 08:17:19;;;;;;;10.17;4.30;;;;;;;;;;5072462;28;20226;-77
2022/02/14 08:19:46;;;;;;;9.53;4.30;;;;;;;;;;5073108;28;20638;-78
2022/02/14 08:22:13;;;;;;;13.23;4.20;;;;;;;;;;5072288;28;20250;-77
2022/02/14 08:24:40;;;;;;;8.60;4.30;;;;;;;;;;5072403;28;20665;-77
2022/02/14 08:27:09;;;;;;;11.63;3.87;;;;;;;;;;5073367;28;20206;-77
2022/02/14 08:29:36;;;;;;;10.33;4.03;;;;;;;;;;5069215;28;20652;-78
2022/02/14 08:32:04;;;;;;;8.93;3.90;;;;;;;;;;5070389;28;20239;-79
2022/02/14 08:34:31;;;;;;;10.30;4.13;;;;;;;;;;5072578;28;20288;-76
2022/02/14 08:36:58;;;;;;;9.87;3.00;;;;;;;;;;5073011;28;20205;-77
2022/02/14 08:39:26;;;;;;;5.87;2.93;;;;;;;;;;5074350;28;20205;-77
2022/02/14 08:41:53;;;;;;;7.30;2.87;;;;;;;;;;5073835;28;20223;-79
2022/02/14 08:44:23;;;;;;;5.73;2.77;;;;;;;;;;5074594;28;20226;-78
2022/02/14 08:46:50;;;;;;;11.07;2.80;;;;;;;;;;5074045;28;20202;-77
2022/02/14 08:49:17;;;;;;;14.67;4.87;;;;;;;;;;5069045;28;20287;-76
2022/02/14 08:51:44;;;;;;;7.37;2.77;;;;;;;;;;5075007;28;20259;-78
2022/02/14 08:54:11;;;;;;;11.53;2.50;;;;;;;;;;5074220;28;20297;-77
2022/02/14 08:56:39;;;;;;;11.27;3.10;;;;;;;;;;5071524;28;20715;-78
2022/02/14 08:59:06;;;;;;;7.80;2.93;;;;;;;;;;5071420;28;20230;-77
2022/02/14 09:01:34;;;;;;;7.20;2.77;;;;;;;;;;5075663;28;20225;-78
2022/02/14 09:04:01;;;;;;;9.13;3.07;;;;;;;;;;5071858;28;20206;-78
2022/02/14 09:06:29;;;;;;;10.73;3.00;;;;;;;;;;5071778;28;20668;-78
2022/02/14 09:08:56;;;;;;;8.67;2.67;;;;;;;;;;5075226;28;20198;-79
2022/02/14 09:11:23;;;;;;;8.43;2.73;;;;;;;;;;5074830;28;20348;-79
2022/02/14 09:13:50;;;;;;;10.30;3.00;;;;;;;;;;5072686;28;20204;-78
2022/02/14 09:16:18;;;;;;;10.73;4.60;;;;;;;;;;5073882;28;20285;-79
2022/02/14 09:18:46;;;;;;;6.50;2.90;;;;;;;;;;5068176;28;20286;-79
2022/02/14 09:21:13;;;;;;;7.83;3.13;;;;;;;;;;5072009;28;20254;-78
2022/02/14 09:23:41;;;;;;;9.00;2.87;;;;;;;;;;5068170;28;20203;-77
2022/02/14 09:26:08;;;;;;;7.33;2.57;;;;;;;;;;5069852;28;20293;-79
2022/02/14 09:28:35;;;;;;;8.00;3.73;;;;;;;;;;5070179;28;20202;-78
2022/02/14 09:31:02;;;;;;;10.20;2.87;;;;;;;;;;5068875;28;20760;-79
2022/02/14 09:33:30;;;;;;;8.40;3.10;;;;;;;;;;5068293;28;20202;-79
2022/02/14 09:36:07;;;;;;;7.37;3.60;;;;;;;;;;5068501;28;20634;-78
2022/02/14 09:38:34;;;;;;;4.77;2.50;;;;;;;;;;5068944;28;20275;-78
2022/02/14 09:41:01;;;;;;;9.43;2.70;;;;;;;;;;5068601;28;20246;-78
2022/02/14 09:43:29;;;;;;;8.13;2.80;;;;;;;;;;5068890;28;20238;-80
2022/02/14 09:46:10;;;;;;;7.63;2.80;;;;;;;;;;5069808;28;20201;-80
2022/02/14 09:48:38;;;;;;;12.33;2.83;;;;;;;;;;5069207;28;20696;-79
2022/02/14 09:51:07;;;;;;;6.87;2.67;;;;;;;;;;5066886;28;20232;-79
2022/02/14 09:53:34;;;;;;;10.43;2.70;;;;;;;;;;5068384;28;20269;-80
2022/02/14 09:56:02;;;;;;;9.00;2.50;;;;;;;;;;5068416;28;20203;-80
2022/02/14 09:58:29;;;;;;;7.20;2.87;;;;;;;;;;5066752;28;20269;-80
2022/02/14 10:00:56;;;;;;;10.27;3.93;;;;;;;;;;5067833;28;20257;-80
2022/02/14 10:03:24;;;;;;;6.87;2.83;;;;;;;;;;5069242;28;20211;-78
2022/02/14 10:05:52;;;;;;;10.23;4.17;;;;;;;;;;5068005;28;20286;-80
2022/02/14 10:08:25;;;;;;;9.13;2.80;;;;;;;;;;5068631;28;20199;-81
2022/02/14 10:10:53;;;;;;;7.87;3.30;;;;;;;;;;5068166;28;20222;-80
2022/02/14 10:13:34;;;;;;;20.27;4.30;;;;;;;;;;5068877;28;20206;-79
2022/02/14 10:16:01;;;;;;;12.33;3.30;;;;;;;;;;5071906;28;20215;-80
2022/02/14 10:18:34;;;;;;;10.77;3.73;;;;;;;;;;5069809;28;20226;-78
2022/02/14 10:21:20;;;;;;;10.70;3.30;;;;;;;;;;5070343;28;20728;-78
2022/02/14 10:24:02;;;;;;;8.43;2.83;;;;;;;;;;5070572;28;20228;-80
2022/02/14 10:26:30;;;;;;;8.07;3.20;;;;;;;;;;5069540;28;20683;-79
2022/02/14 10:28:57;;;;;;;13.30;3.00;;;;;;;;;;5069151;28;20195;-80
2022/02/14 10:31:24;;;;;;;11.17;3.10;;;;;;;;;;5067734;28;20354;-80
2022/02/14 10:33:52;;;;;;;11.47;3.10;;;;;;;;;;5066772;28;20297;-79
2022/02/14 10:36:31;;;;;;;8.60;2.93;;;;;;;;;;5067653;28;20251;-79
2022/02/14 10:38:58;;;;;;;7.60;2.90;;;;;;;;;;5067979;28;20206;-79
2022/02/14 10:41:31;;;;;;;7.97;3.30;;;;;;;;;;5069350;28;20245;-79
2022/02/14 10:44:05;;;;;;;7.00;3.47;;;;;;;;;;5072831;28;20202;-80
2022/02/14 10:46:32;;;;;;;12.23;3.20;;;;;;;;;;5068614;28;20205;-80
2022/02/14 10:49:02;;;;;;;10.37;2.90;;;;;;;;;;5068260;28;20305;-78
2022/02/14 10:51:29;;;;;;;6.10;2.43;;;;;;;;;;5069234;28;20229;-80
2022/02/14 10:53:57;;;;;;;9.10;2.50;;;;;;;;;;5069529;28;20293;-81
2022/02/14 10:56:25;;;;;;;9.93;2.47;;;;;;;;;;5069068;28;20285;-81
2022/02/14 10:59:07;;;;;;;7.20;2.50;;;;;;;;;;5069611;28;20230;-78
2022/02/14 11:01:35;;;;;;;15.63;3.13;;;;;;;;;;5068024;28;20222;-78
2022/02/14 11:04:02;;;;;;;7.63;2.90;;;;;;;;;;5066193;28;20202;-78
2022/02/14 11:06:30;;;;;;;11.67;3.33;;;;;;;;;;5069863;28;20241;-80
2022/02/14 11:08:58;;;;;;;6.43;2.87;;;;;;;;;;5067214;28;20282;-79
2022/02/14 11:11:26;;;;;;;15.27;4.10;;;;;;;;;;5069419;28;20230;-80
2022/02/14 11:13:53;;;;;;;7.43;2.77;;;;;;;;;;5067690;28;20708;-80
2022/02/14 11:16:21;;;;;;;9.80;3.17;;;;;;;;;;5068444;28;20242;-78
2022/02/14 11:18:52;;;;;;;6.67;3.27;;;;;;;;;;5071131;28;20290;-79
2022/02/14 11:21:19;;;;;;;7.70;2.77;;;;;;;;;;5068166;28;20309;-79
2022/02/14 11:23:50;;;;;;;5.33;2.57;;;;;;;;;;5067264;28;20198;-78
2022/02/14 11:26:19;;;;;;;7.20;2.90;;;;;;;;;;5066128;28;20571;-77
2022/02/14 11:28:48;;;;;;;5.73;2.97;;;;;;;;;;5071311;28;20285;-79
2022/02/14 11:31:17;;;;;;;7.87;2.63;;;;;;;;;;5068250;28;20585;-76
2022/02/14 11:33:53;;;;;;;6.57;2.30;;;;;;;;;;5067026;28;20216;-78
2022/02/14 11:36:22;;;;;;;7.40;2.80;;;;;;;;;;5064021;28;20619;-78
2022/02/14 11:38:50;;;;;;;8.47;2.30;;;;;;;;;;5065036;28;20689;-79
2022/02/14 11:41:28;;;;;;;12.80;3.27;;;;;;;;;;5063886;28;20226;-78
2022/02/14 11:43:56;;;;;;;10.50;2.73;;;;;;;;;;5065811;28;20226;-78
2022/02/14 11:46:27;;;;;;;5.93;2.47;;;;;;;;;;5067091;28;20589;-78
2022/02/14 11:49:14;;;;;;;5.57;2.20;;;;;;;;;;5066483;28;20249;-78
2022/02/14 11:51:43;;;;;;;7.83;4.03;;;;;;;;;;5066954;28;20236;-78
2022/02/14 11:54:32;;;;;;;12.93;3.53;;;;;;;;;;5066206;28;20202;-77
2022/02/14 11:57:18;;;;;;;7.03;2.77;;;;;;;;;;5067481;28;20605;-77
2022/02/14 11:59:45;;;;;;;4.13;2.37;;;;;;;;;;5068727;28;20300;-78
2022/02/14 12:02:13;;;;;;;9.13;2.70;;;;;;;;;;5068659;28;20221;-78
2022/02/14 12:04:46;;;;;;;5.73;2.77;;;;;;;;;;5068523;28;20213;-78
2022/02/14 12:07:22;;;;;;;7.93;2.30;;;;;;;;;;5068993;28;20217;-78
2022/02/14 12:10:04;;;;;;;8.37;3.20;;;;;;;;;;5063572;28;20218;-78
2022/02/14 12:12:57;;;;;;;6.67;2.80;;;;;;;;;;5063952;28;20229;-78
2022/02/14 12:21:25;;;;;;;4.87;2.60;;;;;;;;;;5065745;28;20321;-78
2022/02/14 12:23:56;;;;;;;2.80;2.20;;;;;;;;;;5066779;28;20209;-78
2022/02/14 12:26:25;;;;;;;5.13;1.87;;;;;;;;;;5056547;28;20216;-77
2022/02/14 12:29:32;;;;;;;6.10;2.60;;;;;;;;;;5060883;28;20203;-73
2022/02/14 12:31:47;;;;;;;5.63;2.03;;;;;;;;;;5064488;28;20788;-77
2022/02/14 12:34:22;;;;;;;6.63;2.27;;;;;;;;;;5064792;28;20202;-78
2022/02/14 12:36:53;;;;;;;6.37;3.50;;;;;;;;;;5066252;28;20198;-78
2022/02/14 12:39:29;;;;;;;7.90;3.00;;;;;;;;;;5061426;28;20226;-78
2022/02/14 12:41:56;;;;;;;6.50;2.30;;;;;;;;;;5062607;28;20226;-78
2022/02/14 12:44:23;;;;;;;3.13;2.00;;;;;;;;;;5062212;28;20233;-76
2022/02/14 12:46:51;;;;;;;3.20;2.13;;;;;;;;;;5060920;28;20267;-78
2022/02/14 12:49:18;;;;;;;3.77;1.70;;;;;;;;;;5063037;28;20290;-78
2022/02/14 12:51:46;;;;;;;4.97;2.30;;;;;;;;;;5063206;28;20245;-78
2022/02/14 12:54:14;;;;;;;4.73;1.90;;;;;;;;;;5063159;28;20232;-76
2022/02/14 12:56:43;;;;;;;3.83;2.10;;;;;;;;;;5069698;28;20222;-77
2022/02/14 12:59:11;;;;;;;8.57;2.07;;;;;;;;;;5067995;28;20318;-78
2022/02/14 13:01:39;;;;;;;4.80;2.10;;;;;;;;;;5071444;28;20727;-77
2022/02/14 13:04:07;;;;;;;7.87;1.93;;;;;;;;;;5068502;28;20206;-77
2022/02/14 13:06:39;;;;;;;2.73;1.60;;;;;;;;;;5071879;28;20202;-77
2022/02/14 13:09:19;;;;;;;3.43;1.90;;;;;;;;;;5070654;28;20190;-77
2022/02/14 13:11:49;;;;;;;4.73;1.97;;;;;;;;;;5068476;28;20323;-77
2022/02/14 13:14:30;;;;;;;2.23;1.60;;;;;;;;;;5068931;28;20599;-77
2022/02/14 13:16:57;;;;;;;2.80;1.67;;;;;;;;;;5068777;28;20202;-78
2022/02/14 13:19:24;;;;;;;6.33;2.07;;;;;;;;;;5070358;28;20612;-78
2022/02/14 13:21:52;;;;;;;4.00;1.40;;;;;;;;;;5068320;28;20218;-77
2022/02/14 13:24:20;;;;;;;3.10;1.70;;;;;;;;;;5069271;28;20289;-78
2022/02/14 13:26:48;;;;;;;4.73;1.50;;;;;;;;;;5066104;28;20294;-77
2022/02/14 13:29:28;;;;;;;3.10;1.43;;;;;;;;;;5068888;28;20627;-77
2022/02/14 13:31:56;;;;;;;1.27;1.10;;;;;;;;;;5067596;28;20302;-78
2022/02/14 13:34:23;;;;;;;2.50;1.40;;;;;;;;;;5067160;28;20206;-77
2022/02/14 13:36:51;;;;;;;19.20;9.17;;;;;;;;;;5070398;28;20314;-76
2022/02/14 13:39:27;;;;;;;7.27;3.43;;;;;;;;;;5064071;28;20218;-78
2022/02/14 13:41:56;;;;;;;16.40;6.60;;;;;;;;;;5065909;28;20734;-77
2022/02/14 13:44:24;;;;;;;9.17;4.83;;;;;;;;;;5068330;28;20285;-79
2022/02/14 13:46:51;;;;;;;15.23;8.70;;;;;;;;;;5068834;28;20211;-78
2022/02/14 13:49:35;;;;;;;4.27;2.43;;;;;;;;;;5069171;28;20213;-76
2022/02/14 13:52:02;;;;;;;6.90;3.93;;;;;;;;;;5067644;28;20234;-76
2022/02/14 13:54:29;;;;;;;5.80;2.07;;;;;;;;;;5070907;28;20329;-78
2022/02/14 13:56:58;;;;;;;4.53;1.50;;;;;;;;;;5066418;28;20198;-77
2022/02/14 13:59:27;;;;;;;2.33;1.57;;;;;;;;;;5066783;28;20689;-78
2022/02/14 14:02:09;;;;;;;3.87;1.40;;;;;;;;;;5068307;28;20226;-78
2022/02/14 14:04:36;;;;;;;3.13;1.43;;;;;;;;;;5065788;28;20217;-77
2022/02/14 14:07:07;;;;;;;3.63;1.10;;;;;;;;;;5065054;28;20207;-78
2022/02/14 14:09:40;;;;;;;6.80;1.40;;;;;;;;;;5065426;28;20285;-77
2022/02/14 14:12:10;;;;;;;3.13;1.07;;;;;;;;;;5069716;28;20222;-78
2022/02/14 14:14:38;;;;;;;2.00;0.93;;;;;;;;;;5066667;28;20217;-78
2022/02/14 14:17:05;;;;;;;1.47;0.80;;;;;;;;;;5067858;28;20654;-77
2022/02/14 14:19:33;;;;;;;1.80;0.93;;;;;;;;;;5067522;28;20222;-77
2022/02/14 14:22:00;;;;;;;2.57;1.00;;;;;;;;;;5068771;28;20594;-78
2022/02/14 14:24:27;;;;;;;1.57;0.80;;;;;;;;;;5067070;28;20724;-77
2022/02/14 14:26:54;;;;;;;2.53;0.93;;;;;;;;;;5068289;28;20217;-79
2022/02/14 14:29:23;;;;;;;2.10;1.00;;;;;;;;;;5071102;28;20211;-78
2022/02/14 14:31:50;;;;;;;1.40;0.70;;;;;;;;;;5068811;28;20222;-78
2022/02/14 14:34:17;;;;;;;0.90;0.70;;;;;;;;;;5068787;28;20202;-78
2022/02/14 14:36:45;;;;;;;2.60;0.90;;;;;;;;;;5069082;28;20622;-78
2022/02/14 14:39:12;;;;;;;2.50;1.03;;;;;;;;;;5069675;28;20305;-78
2022/02/14 14:41:39;;;;;;;2.20;1.23;;;;;;;;;;5071267;28;20290;-79
2022/02/14 14:44:06;;;;;;;2.83;1.30;;;;;;;;;;5067788;28;20231;-77